createdAt,value
2019-04-20T00:00:08.118Z,72.16
2019-04-20T00:02:38.082Z,71.27
2019-04-20T00:05:07.546Z,71.69
2019-04-20T00:07:37.558Z,71.94
2019-04-20T00:10:10.933Z,71.32
2019-04-20T00:12:53.590Z,71.05
2019-04-20T00:15:08.938Z,72.56
2019-04-20T00:17:40.217Z,72.68
2019-04-20T00:20:13.384Z,72.72
2019-04-20T00:22:58.221Z,72.22
2019-04-20T00:25:54.849Z,72.08
2019-04-20T00:28:37.559Z,71.83
2019-04-20T00:31:07.142Z,70.18
2019-04-20T00:33:36.376Z,70.55
2019-04-20T00:35:48.403Z,71.91
2019-04-20T00:38:17.980Z,71.25
2019-04-20T00:40:56.135Z,71.39
2019-04-20T00:43:27.287Z,72.00
2019-04-20T00:45:53.715Z,71.59
2019-04-20T00:48:32.688Z,71.62
2019-04-20T00:51:06.907Z,71.80
2019-04-20T00:53:30.283Z,71.95
2019-04-20T00:55:52.891Z,72.32
2019-04-20T00:58:28.864Z,71.74
2019-04-20T01:01:12.824Z,71.54
2019-04-20T01:03:37.526Z,70.13
2019-04-20T01:06:17.419Z,70.17
2019-04-20T01:08:31.922Z,72.39
2019-04-20T01:11:04.155Z,72.89
2019-04-20T01:13:42.203Z,72.62
2019-04-20T01:16:08.508Z,72.86
2019-04-20T01:18:36.884Z,71.68
2019-04-20T01:21:13.124Z,70.79
2019-04-20T01:23:46.208Z,72.07
2019-04-20T01:26:18.058Z,73.34
2019-04-20T01:28:59.062Z,72.92
2019-04-20T01:31:24.150Z,73.34
2019-04-20T01:33:56.313Z,71.21
2019-04-20T01:36:37.087Z,70.99
2019-04-20T01:38:59.876Z,70.81
2019-04-20T01:41:16.115Z,72.14
2019-04-20T01:43:44.529Z,72.76
2019-04-20T01:46:17.123Z,72.96
2019-04-20T01:48:44.686Z,73.31
2019-04-20T01:51:21.165Z,74.07
2019-04-20T01:54:02.227Z,73.62
2019-04-20T01:56:31.602Z,74.02
2019-04-20T01:59:10.536Z,73.87
2019-04-20T02:01:29.210Z,73.63
2019-04-20T02:04:07.303Z,73.71
2019-04-20T02:06:43.521Z,74.06
2019-04-20T02:09:14.787Z,73.90
2019-04-20T02:11:43.052Z,74.12
2019-04-20T02:14:11.961Z,74.51
2019-04-20T02:16:45.880Z,74.60
2019-04-20T02:19:26.635Z,75.14
2019-04-20T02:21:55.478Z,74.21
2019-04-20T02:24:12.577Z,73.95
2019-04-20T02:26:40.963Z,74.10
2019-04-20T02:29:35.078Z,74.03
2019-04-20T02:32:23.953Z,74.26
2019-04-20T02:34:47.783Z,74.04
2019-04-20T02:37:33.439Z,73.97
2019-04-20T02:39:51.388Z,73.79
2019-04-20T02:42:24.510Z,73.14
2019-04-20T02:45:01.302Z,73.48
2019-04-20T02:47:30.494Z,73.11
2019-04-20T02:49:52.395Z,73.13
2019-04-20T02:52:36.675Z,73.16
2019-04-20T02:54:52.969Z,73.65
2019-04-20T02:57:33.498Z,73.08
2019-04-20T03:02:11.464Z,72.83
2019-04-20T03:04:34.140Z,73.28
2019-04-20T03:07:09.341Z,72.81
2019-04-20T03:09:44.365Z,73.00
2019-04-20T03:12:21.703Z,72.91
2019-04-20T03:14:39.606Z,72.60
2019-04-20T03:17:15.532Z,72.75
2019-04-20T03:19:38.662Z,72.47
2019-04-20T03:22:16.117Z,72.05
2019-04-20T03:24:59.553Z,73.11
2019-04-20T03:27:14.536Z,72.69
2019-04-20T03:29:47.003Z,73.06
2019-04-20T03:37:26.893Z,72.89
2019-04-20T03:39:46.618Z,72.24
2019-04-20T03:42:01.034Z,72.91
2019-04-20T03:44:32.905Z,72.89
2019-04-20T03:47:05.208Z,72.46
2019-04-20T03:49:54.851Z,72.25
2019-04-20T03:52:31.082Z,72.43
2019-04-20T03:55:01.376Z,70.97
2019-04-20T03:57:54.307Z,71.24
2019-04-20T04:00:36.505Z,72.57
2019-04-20T04:03:29.010Z,73.13
2019-04-20T04:05:48.038Z,71.79
2019-04-20T04:08:12.263Z,72.61
2019-04-20T04:10:54.794Z,71.15
2019-04-20T04:13:23.130Z,70.89
2019-04-20T04:15:57.467Z,71.75
2019-04-20T04:18:29.923Z,72.48
2019-04-20T04:21:00.048Z,72.35
2019-04-20T04:23:40.433Z,72.67
2019-04-20T04:26:08.824Z,72.29
2019-04-20T04:28:40.672Z,71.68
2019-04-20T04:31:12.029Z,71.54
2019-04-20T04:34:07.647Z,71.95
2019-04-20T04:36:15.285Z,72.90
2019-04-20T04:38:56.146Z,72.97
2019-04-20T04:41:24.314Z,72.79
2019-04-20T04:43:44.368Z,72.58
2019-04-20T04:45:59.638Z,72.08
2019-04-20T04:48:34.666Z,72.08
2019-04-20T04:51:03.883Z,72.06
2019-04-20T04:53:41.728Z,71.35
2019-04-20T04:56:05.412Z,71.60
2019-04-20T04:58:29.826Z,71.87
2019-04-20T05:01:05.564Z,71.90
2019-04-20T05:03:44.933Z,71.75
2019-04-20T05:06:22.009Z,71.25
2019-04-20T05:08:43.842Z,70.68
2019-04-20T05:11:09.023Z,71.32
2019-04-20T05:13:46.784Z,70.86
2019-04-20T05:16:27.857Z,70.30
2019-04-20T05:19:09.439Z,69.54
2019-04-20T05:21:25.622Z,69.96
2019-04-20T05:23:59.111Z,70.91
2019-04-20T05:26:37.535Z,70.91
2019-04-20T05:28:55.668Z,70.46
2019-04-20T05:31:23.235Z,70.35
2019-04-20T05:34:15.627Z,69.82
2019-04-20T05:36:41.432Z,69.69
2019-04-20T05:39:21.315Z,70.18
2019-04-20T05:41:42.021Z,70.00
2019-04-20T05:44:08.745Z,70.14
2019-04-20T05:46:47.925Z,68.93
2019-04-20T05:49:18.764Z,67.90
2019-04-20T05:51:43.329Z,66.86
2019-04-20T05:54:30.528Z,66.21
2019-04-20T05:56:45.692Z,66.14
2019-04-20T05:59:16.177Z,66.22
2019-04-20T06:01:58.888Z,64.69
2019-04-20T06:04:30.063Z,64.69
2019-04-20T06:06:55.026Z,65.61
2019-04-20T06:12:11.666Z,58.80
2019-04-20T06:14:20.545Z,56.61
2019-04-20T06:17:11.223Z,57.86
2019-04-20T06:19:35.897Z,54.30
2019-04-20T06:22:10.338Z,52.84
2019-04-20T06:24:57.297Z,52.83
2019-04-20T06:27:14.862Z,50.57
2019-04-20T06:29:49.859Z,51.64
2019-04-20T06:32:23.470Z,49.46
2019-04-20T06:34:42.614Z,49.07
2019-04-20T06:37:09.538Z,47.70
2019-04-20T06:39:49.109Z,48.11
2019-04-20T06:42:17.648Z,48.24
2019-04-20T06:44:53.141Z,48.62
2019-04-20T06:47:18.895Z,43.89
2019-04-20T06:49:53.265Z,42.78
2019-04-20T06:52:26.229Z,41.23
2019-04-20T06:55:08.687Z,41.93
2019-04-20T07:00:11.377Z,40.75
2019-04-20T07:02:41.455Z,39.18
2019-04-20T07:05:27.397Z,39.02
2019-04-20T07:07:50.024Z,39.81
2019-04-20T07:10:19.792Z,38.30
2019-04-20T07:12:42.517Z,37.38
2019-04-20T07:15:08.550Z,34.74
2019-04-20T07:17:54.642Z,36.44
2019-04-20T07:20:26.154Z,35.83
2019-04-20T07:25:38.801Z,32.41
2019-04-20T07:28:09.745Z,29.74
2019-04-20T07:30:40.323Z,30.07
2019-04-20T07:33:12.672Z,30.11
2019-04-20T07:35:41.762Z,27.70
2019-04-20T07:40:38.301Z,28.82
2019-04-20T07:43:08.166Z,28.17
2019-04-20T07:45:36.497Z,27.47
2019-04-20T07:50:37.477Z,25.58
2019-04-20T07:53:08.906Z,24.31
2019-04-20T07:55:50.748Z,24.20
2019-04-20T07:58:12.171Z,22.89
2019-04-20T08:01:00.003Z,23.64
2019-04-20T08:03:22.283Z,23.48
2019-04-20T08:05:45.688Z,26.30
2019-04-20T08:08:22.674Z,25.78
2019-04-20T08:10:53.731Z,26.40
2019-04-20T08:13:36.508Z,26.82
2019-04-20T08:15:58.394Z,26.90
2019-04-20T08:20:59.642Z,27.62
2019-04-20T08:23:35.953Z,28.54
2019-04-20T08:25:47.335Z,27.55
2019-04-20T08:28:31.585Z,27.31
2019-04-20T08:31:09.328Z,28.28
2019-04-20T08:33:57.652Z,29.20
2019-04-20T08:36:17.104Z,28.95
2019-04-20T08:39:06.471Z,29.50
2019-04-20T08:41:14.255Z,31.48
2019-04-20T08:43:49.639Z,28.98
2019-04-20T08:46:17.781Z,30.05
2019-04-20T08:48:46.117Z,31.95
2019-04-20T08:51:19.448Z,31.82
2019-04-20T08:53:53.604Z,31.47
2019-04-20T08:56:13.991Z,32.88
2019-04-20T08:58:36.368Z,33.19
2019-04-20T09:01:08.359Z,32.81
2019-04-20T09:03:46.184Z,34.36
2019-04-20T09:06:19.358Z,33.90
2019-04-20T09:08:49.200Z,33.91
2019-04-20T09:11:23.985Z,33.64
2019-04-20T09:13:45.528Z,33.75
2019-04-20T09:16:08.853Z,35.41
2019-04-20T09:18:51.468Z,33.19
2019-04-20T09:21:24.330Z,32.25
2019-04-20T09:24:16.131Z,34.57
2019-04-20T09:26:37.121Z,32.53
2019-04-20T09:29:05.662Z,32.46
2019-04-20T09:31:40.534Z,32.25
2019-04-20T09:34:15.869Z,36.32
2019-04-20T09:36:45.852Z,34.44
2019-04-20T09:39:15.271Z,33.73
2019-04-20T09:41:58.460Z,33.96
2019-04-20T09:44:15.473Z,32.63
2019-04-20T09:46:51.490Z,32.73
2019-04-20T09:49:28.611Z,34.48
2019-04-20T09:52:06.785Z,33.77
2019-04-20T09:54:38.273Z,30.46
2019-04-20T09:57:09.478Z,30.32
2019-04-20T09:59:37.175Z,29.80
2019-04-20T10:02:02.163Z,29.68
2019-04-20T10:04:25.798Z,32.57
2019-04-20T10:06:55.256Z,30.85
2019-04-20T10:09:32.614Z,29.03
2019-04-20T10:11:59.555Z,29.46
2019-04-20T10:14:28.921Z,31.09
2019-04-20T10:17:02.148Z,27.27
2019-04-20T10:19:33.898Z,31.03
2019-04-20T10:22:04.684Z,29.50
2019-04-20T10:24:33.125Z,29.56
2019-04-20T10:27:02.877Z,30.88
2019-04-20T10:29:31.486Z,29.27
2019-04-20T10:32:01.623Z,28.28
2019-04-20T10:34:34.754Z,28.95
2019-04-20T10:37:07.445Z,28.39
2019-04-20T10:39:38.499Z,28.39
2019-04-20T10:42:10.098Z,27.52
2019-04-20T10:44:38.990Z,27.57
2019-04-20T10:47:07.422Z,26.56
2019-04-20T10:49:42.854Z,28.10
2019-04-20T10:52:09.845Z,25.95
2019-04-20T10:54:38.659Z,26.86
2019-04-20T10:57:07.871Z,25.04
2019-04-20T10:59:37.270Z,25.76
2019-04-20T11:02:07.943Z,28.83
2019-04-20T11:04:36.828Z,29.40
2019-04-20T11:07:06.469Z,25.24
2019-04-20T11:09:34.926Z,27.16
2019-04-20T11:12:08.694Z,27.49
2019-04-20T11:14:44.408Z,26.09
2019-04-20T11:17:12.221Z,24.93
2019-04-20T11:19:41.160Z,26.62
2019-04-20T11:22:10.381Z,29.38
2019-04-20T11:24:41.288Z,26.93
2019-04-20T11:27:14.235Z,24.94
2019-04-20T11:29:42.689Z,24.88
2019-04-20T11:32:14.128Z,24.22
2019-04-20T11:34:47.109Z,25.47
2019-04-20T11:37:17.147Z,27.25
2019-04-20T11:39:45.684Z,26.01
2019-04-20T11:42:14.103Z,25.68
2019-04-20T11:44:48.807Z,24.56
2019-04-20T11:47:18.792Z,27.66
2019-04-20T11:49:47.336Z,25.51
2019-04-20T11:52:18.360Z,27.93
2019-04-20T11:54:46.362Z,26.26
2019-04-20T11:57:15.435Z,25.92
2019-04-20T11:59:47.294Z,25.15
2019-04-20T12:02:29.073Z,24.64
2019-04-20T12:05:07.548Z,25.49
2019-04-20T12:07:24.892Z,25.70
2019-04-20T12:09:53.553Z,27.56
2019-04-20T12:12:38.975Z,22.29
2019-04-20T12:15:02.286Z,25.18
2019-04-20T12:17:33.483Z,25.56
2019-04-20T12:20:02.023Z,22.39
2019-04-20T12:22:30.459Z,22.40
2019-04-20T12:25:02.546Z,22.53
2019-04-20T12:27:30.511Z,26.95
2019-04-20T12:29:59.566Z,24.84
2019-04-20T12:32:38.135Z,25.08
2019-04-20T12:34:58.522Z,26.84
2019-04-20T12:37:27.085Z,27.51
2019-04-20T12:39:55.523Z,27.11
2019-04-20T12:42:25.243Z,30.16
2019-04-20T12:44:53.745Z,26.21
2019-04-20T12:47:22.147Z,26.33
2019-04-20T12:49:51.661Z,26.56
2019-04-20T12:52:22.796Z,26.79
2019-04-20T12:54:56.834Z,25.98
2019-04-20T12:57:25.279Z,24.33
2019-04-20T12:59:59.461Z,24.48
2019-04-20T13:02:33.387Z,22.68
2019-04-20T13:05:01.999Z,23.97
2019-04-20T13:07:38.071Z,25.42
2019-04-20T13:10:03.881Z,24.00
2019-04-20T13:12:40.667Z,21.79
2019-04-20T13:15:20.281Z,20.57
2019-04-20T13:17:52.121Z,22.98
2019-04-20T13:20:19.007Z,20.19
2019-04-20T13:22:48.696Z,18.51
2019-04-20T13:25:17.219Z,19.12
2019-04-20T13:27:45.634Z,20.50
2019-04-20T13:30:14.999Z,21.92
2019-04-20T13:32:47.821Z,20.95
2019-04-20T13:35:16.368Z,21.48
2019-04-20T13:37:46.817Z,22.12
2019-04-20T13:40:15.685Z,21.13
2019-04-20T13:42:45.645Z,19.84
2019-04-20T13:45:21.030Z,20.48
2019-04-20T13:47:54.991Z,20.81
2019-04-20T13:50:24.451Z,18.90
2019-04-20T13:52:58.358Z,21.72
2019-04-20T13:55:32.354Z,24.37
2019-04-20T13:58:10.568Z,22.45
2019-04-20T14:01:03.059Z,19.73
2019-04-20T14:03:34.619Z,24.02
2019-04-20T14:06:04.671Z,20.93
2019-04-20T14:08:34.004Z,21.96
2019-04-20T14:11:03.565Z,20.94
2019-04-20T14:13:40.342Z,19.62
2019-04-20T14:16:05.085Z,22.25
2019-04-20T14:18:35.390Z,24.10
2019-04-20T14:21:08.011Z,22.74
2019-04-20T14:23:37.063Z,21.62
2019-04-20T14:26:09.201Z,23.02
2019-04-20T14:28:38.754Z,20.97
2019-04-20T14:31:09.800Z,21.17
2019-04-20T14:33:41.242Z,20.37
2019-04-20T14:36:10.978Z,20.70
2019-04-20T14:38:45.374Z,19.84
2019-04-20T14:41:16.164Z,22.29
2019-04-20T14:43:44.783Z,20.26
2019-04-20T14:46:14.599Z,21.10
2019-04-20T14:48:50.000Z,20.46
2019-04-20T14:51:19.488Z,20.67
2019-04-20T14:54:05.623Z,21.16
2019-04-20T14:56:34.128Z,20.97
2019-04-20T14:59:21.626Z,21.28
2019-04-20T15:01:52.495Z,21.08
2019-04-20T15:04:23.265Z,22.71
2019-04-20T15:06:52.611Z,24.38
2019-04-20T15:09:21.246Z,22.37
2019-04-20T15:11:50.721Z,21.70
2019-04-20T15:14:20.646Z,21.28
2019-04-20T15:16:49.289Z,22.45
2019-04-20T15:19:23.434Z,23.39
2019-04-20T15:21:57.633Z,24.88
2019-04-20T15:24:27.376Z,22.83
2019-04-20T15:26:56.452Z,22.90
2019-04-20T15:29:26.323Z,22.38
2019-04-20T15:31:56.522Z,22.83
2019-04-20T15:34:28.892Z,23.62
2019-04-20T15:36:58.297Z,23.96
2019-04-20T15:39:27.381Z,24.96
2019-04-20T15:42:01.254Z,23.18
2019-04-20T15:44:29.388Z,25.87
2019-04-20T15:46:59.285Z,26.38
2019-04-20T15:49:28.392Z,24.89
2019-04-20T15:51:57.956Z,26.46
2019-04-20T15:54:27.463Z,24.79
2019-04-20T15:57:02.385Z,26.40
2019-04-20T15:59:28.583Z,26.22
2019-04-20T16:02:03.226Z,24.94
2019-04-20T16:04:52.715Z,25.32
2019-04-20T16:07:21.496Z,25.99
2019-04-20T16:09:50.465Z,26.86
2019-04-20T16:12:20.850Z,26.28
2019-04-20T16:14:49.548Z,26.71
2019-04-20T16:17:19.452Z,28.46
2019-04-20T16:20:20.159Z,27.03
2019-04-20T16:22:49.199Z,27.21
2019-04-20T16:25:21.605Z,27.30
2019-04-20T16:27:49.987Z,26.01
2019-04-20T16:30:21.595Z,26.32
2019-04-20T16:32:50.283Z,26.30
2019-04-20T16:35:18.882Z,25.56
2019-04-20T16:37:53.173Z,27.02
2019-04-20T16:40:21.257Z,28.02
2019-04-20T16:42:58.473Z,28.90
2019-04-20T16:45:25.400Z,28.05
2019-04-20T16:47:54.985Z,27.98
2019-04-20T16:50:26.898Z,28.16
2019-04-20T16:52:55.130Z,28.10
2019-04-20T16:55:25.014Z,29.27
2019-04-20T16:57:53.674Z,28.46
2019-04-20T17:00:23.247Z,28.81
2019-04-20T17:02:52.236Z,28.56
2019-04-20T17:05:23.219Z,29.05
2019-04-20T17:07:53.338Z,29.34
2019-04-20T17:13:44.137Z,29.11
2019-04-20T17:19:15.493Z,29.05
2019-04-20T17:21:57.294Z,29.48
2019-04-20T17:24:25.107Z,29.54
2019-04-20T17:27:05.182Z,32.70
2019-04-20T17:29:35.853Z,32.58
2019-04-20T17:32:08.119Z,33.21
2019-04-20T17:34:55.728Z,33.60
2019-04-20T17:37:10.748Z,33.58
2019-04-20T17:40:04.231Z,32.19
2019-04-20T17:42:30.485Z,32.46
2019-04-20T17:44:58.726Z,34.13
2019-04-20T17:47:40.455Z,32.93
2019-04-20T17:50:17.418Z,32.26
2019-04-20T17:52:49.613Z,31.93
2019-04-20T17:55:24.640Z,32.13
2019-04-20T17:57:47.479Z,32.21
2019-04-20T18:00:38.623Z,32.35
2019-04-20T18:03:24.535Z,33.52
2019-04-20T18:05:59.518Z,36.28
2019-04-20T18:08:40.407Z,35.53
2019-04-20T18:11:03.967Z,37.15
2019-04-20T18:13:27.580Z,37.16
2019-04-20T18:16:26.395Z,38.80
2019-04-20T18:18:59.530Z,37.88
2019-04-20T18:21:21.004Z,38.26
2019-04-20T18:23:52.352Z,40.16
2019-04-20T18:26:45.368Z,39.13
2019-04-20T18:29:16.549Z,40.40
2019-04-20T18:31:29.146Z,39.35
2019-04-20T18:34:00.777Z,40.29
2019-04-20T18:36:39.199Z,40.40
2019-04-20T18:39:09.746Z,39.32
2019-04-20T18:41:41.576Z,38.98
2019-04-20T18:44:12.919Z,38.56
2019-04-20T18:47:09.531Z,38.50
2019-04-20T18:49:35.074Z,38.64
2019-04-20T18:51:53.672Z,37.75
2019-04-20T18:54:28.606Z,38.37
2019-04-20T18:56:59.809Z,38.76
2019-04-20T18:59:40.067Z,39.39
2019-04-20T19:02:11.451Z,39.96
2019-04-20T19:04:41.738Z,42.32
2019-04-20T19:07:14.123Z,42.99
2019-04-20T19:09:46.140Z,44.48
2019-04-20T19:12:17.164Z,44.91
2019-04-20T19:15:12.094Z,44.93
2019-04-20T19:17:53.744Z,44.16
2019-04-20T19:20:18.219Z,44.41
2019-04-20T19:23:30.048Z,44.69
2019-04-20T19:25:43.811Z,44.69
2019-04-20T19:28:25.417Z,44.17
2019-04-20T19:31:01.813Z,44.33
2019-04-20T19:33:37.840Z,44.89
2019-04-20T19:36:09.295Z,45.02
2019-04-20T19:38:44.189Z,44.43
2019-04-20T19:41:20.364Z,44.93
2019-04-20T19:43:48.365Z,44.09
2019-04-20T19:46:39.408Z,42.53
2019-04-20T19:48:49.618Z,43.35
2019-04-20T19:51:38.117Z,41.81
2019-04-20T19:54:20.145Z,42.28
2019-04-20T19:56:46.586Z,42.96
2019-04-20T19:59:11.142Z,43.70
2019-04-20T20:01:31.622Z,44.71
2019-04-20T20:04:04.596Z,45.27
2019-04-20T20:06:41.365Z,44.85
2019-04-20T20:09:09.399Z,45.12
2019-04-20T20:11:40.435Z,44.69
2019-04-20T20:14:10.992Z,45.53
2019-04-20T20:17:01.595Z,45.25
2019-04-20T20:19:38.086Z,44.82
2019-04-20T20:22:05.548Z,44.67
2019-04-20T20:24:23.524Z,44.86
2019-04-20T20:26:59.868Z,45.00
2019-04-20T20:29:33.198Z,45.43
2019-04-20T20:32:05.090Z,45.82
2019-04-20T20:34:32.433Z,46.12
2019-04-20T20:37:00.501Z,46.30
2019-04-20T20:39:30.946Z,46.35
2019-04-20T20:42:08.093Z,46.41
2019-04-20T20:44:38.806Z,46.91
2019-04-20T20:47:12.907Z,46.96
2019-04-20T20:49:48.666Z,47.40
2019-04-20T20:52:17.314Z,47.18
2019-04-20T20:54:41.164Z,47.50
2019-04-20T20:57:05.696Z,48.28
2019-04-20T20:59:40.314Z,48.64
2019-04-20T21:02:06.771Z,49.01
2019-04-20T21:04:37.667Z,49.30
2019-04-20T21:07:08.716Z,49.85
2019-04-20T21:09:39.623Z,49.83
2019-04-20T21:12:14.905Z,50.69
2019-04-20T21:14:45.368Z,50.13
2019-04-20T21:18:03.375Z,50.29
2019-04-20T21:20:20.162Z,49.98
2019-04-20T21:22:58.435Z,50.09
2019-04-20T21:25:42.315Z,49.84
2019-04-20T21:28:15.090Z,49.64
2019-04-20T21:30:48.454Z,49.86
2019-04-20T21:33:20.691Z,50.27
2019-04-20T21:35:56.749Z,50.07
2019-04-20T21:38:31.438Z,50.41
2019-04-20T21:41:03.449Z,50.51
2019-04-20T21:43:36.651Z,50.83
2019-04-20T21:46:05.431Z,51.14
2019-04-20T21:48:50.456Z,51.41
2019-04-20T21:51:21.218Z,50.92
2019-04-20T21:53:35.461Z,51.30
2019-04-20T21:56:04.033Z,51.12
2019-04-20T21:58:41.687Z,50.89
2019-04-20T22:01:17.636Z,50.87
2019-04-20T22:03:36.321Z,51.05
2019-04-20T22:06:07.033Z,50.42
2019-04-20T22:08:39.362Z,50.38
2019-04-20T22:11:08.304Z,51.19
2019-04-20T22:13:40.144Z,51.72
2019-04-20T22:16:10.533Z,52.21
2019-04-20T22:18:48.526Z,52.47
2019-04-20T22:21:21.344Z,53.07
2019-04-20T22:24:01.297Z,53.08
2019-04-20T22:26:24.425Z,53.15
2019-04-20T22:28:42.406Z,53.23
2019-04-20T22:31:11.957Z,53.10
2019-04-20T22:33:43.599Z,53.62
2019-04-20T22:36:13.086Z,54.07
2019-04-20T22:39:02.894Z,53.89
2019-04-20T22:41:30.253Z,54.05
2019-04-20T22:44:02.772Z,53.51
2019-04-20T22:46:35.714Z,54.06
2019-04-20T22:49:22.220Z,54.09
2019-04-20T22:51:47.502Z,54.10
2019-04-20T22:54:21.625Z,54.91
2019-04-20T22:56:47.258Z,54.45
2019-04-20T22:59:13.065Z,54.06
2019-04-20T23:01:44.441Z,54.19
2019-04-20T23:04:06.495Z,53.61
2019-04-20T23:06:43.977Z,53.77
2019-04-20T23:09:14.685Z,54.35
2019-04-20T23:11:42.740Z,55.47
2019-04-20T23:14:14.514Z,55.55
2019-04-20T23:16:48.361Z,56.29
2019-04-20T23:19:28.991Z,55.97
2019-04-20T23:21:55.540Z,55.83
2019-04-20T23:24:21.885Z,55.71
2019-04-20T23:26:50.827Z,56.13
2019-04-20T23:29:21.372Z,56.48
2019-04-20T23:31:56.905Z,56.94
2019-04-20T23:34:24.730Z,58.36
2019-04-20T23:36:50.994Z,58.48
2019-04-20T23:39:32.328Z,58.57
2019-04-20T23:42:04.023Z,58.31
2019-04-20T23:44:53.023Z,58.08
2019-04-20T23:47:22.007Z,60.08
2019-04-20T23:50:30.555Z,58.65
2019-04-20T23:52:59.717Z,59.63
2019-04-20T23:55:15.201Z,59.64
2019-04-20T23:57:45.979Z,59.28
